Terminal Aerodrome Forecast
Issued by NWS Midland/Odessa, TX

Home | Current Version | Previous Version | Text Only | Print | Product List | Glossary On
Versions: 1 2 3 4 5 6 7 8 9 10 11 12 13 14 15 16 17 18 19 20 21
000
FTUS44 KMAF 170500
TAFMAF
TAF
KMAF 170530Z 1706/1806 08007KT P6SM SCT040 BKN120
     FM171000 VRB05KT P6SM BKN015
     FM171800 09006KT P6SM -SHRA SCT030 BKN060=

USA.gov is the U.S. government's official web portal to all federal, state and local government web resources and services.